Time;durP1;ratioP1;P1;durP2;ratioP2;P2;SDS_P1;SDS_P2;PMS_P1;PMS_P2;Temp;Humidity;BMP_temperature;BMP_pressure;BME280_temperature;BME280_humidity;BME280_pressure;Samples;Min_cycle;Max_cycle;Signal;HPM_P1;HPM_P2
2021/08/16 00:01:01;;;;;;;10.30;6.67;;;;;;;22.31;72.18;101292.27;1726364;83;21029;-77
2021/08/16 00:03:28;;;;;;;9.20;6.62;;;;;;;22.29;72.21;101291.61;1726320;83;20955;-75
2021/08/16 00:05:56;;;;;;;12.85;6.62;;;;;;;22.31;72.20;101290.94;1726213;83;20892;-77
2021/08/16 00:08:24;;;;;;;12.28;6.80;;;;;;;22.29;72.08;101290.28;1726407;83;21538;-78
2021/08/16 00:10:52;;;;;;;10.20;6.45;;;;;;;22.27;72.06;101288.31;1725731;83;20903;-78
2021/08/16 00:13:24;;;;;;;8.10;6.55;;;;;;;22.26;71.95;101292.42;1725421;83;21073;-79
2021/08/16 00:15:52;;;;;;;9.85;6.67;;;;;;;22.25;71.98;101288.95;1725131;83;20994;-77
2021/08/16 00:18:19;;;;;;;10.95;6.60;;;;;;;22.26;71.48;101289.78;1725683;83;21133;-75
2021/08/16 00:20:47;;;;;;;10.70;6.65;;;;;;;22.28;70.88;101289.11;1727341;83;20915;-78
2021/08/16 00:23:14;;;;;;;9.15;6.33;;;;;;;22.30;70.34;101286.66;1709229;83;20954;-76
2021/08/16 00:25:42;;;;;;;9.63;6.17;;;;;;;22.32;69.94;101285.16;1727373;83;20983;-77
2021/08/16 00:28:12;;;;;;;9.70;6.47;;;;;;;22.32;69.57;101283.35;1726177;83;21034;-75
2021/08/16 00:30:40;;;;;;;8.93;7.00;;;;;;;22.33;69.42;101288.98;1724887;83;21018;-76
2021/08/16 00:33:09;;;;;;;8.00;6.25;;;;;;;22.29;69.35;101285.00;1725126;83;20972;-75
2021/08/16 00:35:36;;;;;;;13.43;6.67;;;;;;;22.30;69.54;101292.44;1724906;83;20908;-76
2021/08/16 00:38:04;;;;;;;8.63;6.50;;;;;;;22.28;69.73;101292.59;1706425;83;20939;-76
2021/08/16 00:40:34;;;;;;;9.08;5.95;;;;;;;22.27;69.90;101295.41;1726362;83;20991;-75
2021/08/16 00:43:02;;;;;;;9.08;6.97;;;;;;;22.25;70.30;101297.37;1725436;83;21081;-78
2021/08/16 00:45:30;;;;;;;10.35;6.35;;;;;;;22.23;70.58;101300.68;1724737;83;21058;-79
2021/08/16 00:47:58;;;;;;;11.60;8.60;;;;;;;22.21;70.74;101296.06;1724440;83;20907;-79
2021/08/16 00:50:24;;;;;;;9.10;6.90;;;;;;;22.19;71.18;101298.84;1724315;83;21026;-79
2021/08/16 00:52:53;;;;;;;10.78;7.03;;;;;;;22.17;71.18;101287.62;1724494;83;20975;-78
2021/08/16 00:55:19;;;;;;;7.97;6.67;;;;;;;22.14;71.26;101294.03;1724689;83;21126;-78
2021/08/16 00:57:46;;;;;;;8.05;6.72;;;;;;;22.13;71.46;101302.14;1706857;83;20903;-80
2021/08/16 01:00:15;;;;;;;8.33;6.62;;;;;;;22.10;71.83;101294.53;1729029;83;20967;-78
2021/08/16 01:02:42;;;;;;;12.23;7.20;;;;;;;22.08;72.14;101288.06;1728838;83;20911;-80
2021/08/16 01:05:13;;;;;;;9.05;8.00;;;;;;;22.05;72.37;101285.74;1728951;82;21010;-81
2021/08/16 01:07:42;;;;;;;14.75;9.13;;;;;;;22.02;72.58;101285.23;1729020;83;21721;-81
2021/08/16 01:10:09;;;;;;;13.78;10.82;;;;;;;21.98;72.66;101294.00;1728816;83;20979;-80
2021/08/16 01:12:38;;;;;;;11.35;10.15;;;;;;;21.92;72.78;101293.29;1728834;83;20943;-80
2021/08/16 01:15:07;;;;;;;12.75;9.93;;;;;;;21.90;72.97;101286.03;1728818;83;21512;-81
2021/08/16 01:17:33;;;;;;;18.57;12.37;;;;;;;21.89;73.18;101284.87;1728800;83;21529;-80
2021/08/16 01:20:04;;;;;;;12.68;11.12;;;;;;;21.87;73.45;101278.88;1728484;83;21581;-80
2021/08/16 01:22:34;;;;;;;18.65;12.03;;;;;;;21.86;73.57;101277.20;1728753;83;20927;-81
2021/08/16 01:25:03;;;;;;;12.45;10.05;;;;;;;21.84;73.73;101273.91;1728625;83;20979;-80
2021/08/16 01:27:29;;;;;;;16.90;10.72;;;;;;;21.79;73.95;101268.28;1728688;83;21002;-80
2021/08/16 01:29:58;;;;;;;8.70;7.10;;;;;;;21.75;74.16;101274.87;1728907;83;20951;-81
2021/08/16 01:32:25;;;;;;;10.58;7.22;;;;;;;21.73;74.44;101276.85;1728601;83;21473;-82
2021/08/16 01:34:52;;;;;;;9.00;6.87;;;;;;;21.73;74.94;101270.25;1728679;83;20982;-82
2021/08/16 01:37:18;;;;;;;10.05;6.75;;;;;;;21.75;74.83;101270.41;1728959;83;20950;-80
2021/08/16 01:39:45;;;;;;;9.65;7.33;;;;;;;21.77;74.66;101271.56;1729015;83;21578;-82
2021/08/16 01:42:11;;;;;;;9.23;7.08;;;;;;;21.79;74.63;101274.41;1728566;83;21093;-81
2021/08/16 01:44:38;;;;;;;10.72;6.65;;;;;;;21.79;74.67;101269.61;1728826;83;21988;-82
2021/08/16 01:47:04;;;;;;;12.75;6.90;;;;;;;21.77;74.72;101268.44;1728410;83;20971;-84
2021/08/16 01:49:31;;;;;;;10.10;6.90;;;;;;;21.79;74.77;101269.61;1728819;83;20950;-79
2021/08/16 01:52:00;;;;;;;8.38;6.95;;;;;;;21.77;74.83;101270.23;1708118;83;21026;-80
2021/08/16 01:54:28;;;;;;;7.78;6.12;;;;;;;21.77;74.80;101271.56;1728843;83;21434;-82
2021/08/16 01:56:54;;;;;;;11.70;7.20;;;;;;;21.75;74.79;101269.58;1728766;83;21092;-82
2021/08/16 01:59:21;;;;;;;11.65;7.00;;;;;;;21.72;74.64;101268.58;1728405;83;21026;-81
2021/08/16 02:01:47;;;;;;;8.73;6.70;;;;;;;21.70;74.50;101265.28;1728665;83;21509;-81
2021/08/16 02:04:15;;;;;;;8.28;6.72;;;;;;;21.70;74.37;101268.72;1728738;83;21652;-80
2021/08/16 02:06:42;;;;;;;8.05;6.42;;;;;;;21.73;74.11;101268.92;1728722;83;20921;-82
2021/08/16 02:09:08;;;;;;;13.08;7.35;;;;;;;21.75;73.74;101270.91;1728553;83;21104;-82
2021/08/16 02:11:37;;;;;;;11.48;7.10;;;;;;;21.76;73.73;101278.66;1728595;83;21018;-82
2021/08/16 02:14:03;;;;;;;9.78;6.83;;;;;;;21.74;73.79;101274.03;1728593;83;20951;-81
2021/08/16 02:16:30;;;;;;;9.73;6.72;;;;;;;21.72;73.87;101268.58;1728842;83;20943;-82
2021/08/16 02:18:56;;;;;;;7.58;6.58;;;;;;;21.69;73.85;101269.73;1728713;83;20981;-81
2021/08/16 02:21:23;;;;;;;15.18;6.83;;;;;;;21.68;73.77;101276.48;1728673;83;21092;-82
2021/08/16 02:23:49;;;;;;;9.10;7.47;;;;;;;;;;1728571;83;21037;-83
2021/08/16 02:26:15;;;;;;;8.25;6.50;;;;;;;21.67;73.72;101274.33;1728725;83;21493;-82
2021/08/16 02:28:42;;;;;;;11.45;6.90;;;;;;;21.64;73.65;101275.48;1728596;83;20974;-82
2021/08/16 02:31:08;;;;;;;8.13;6.80;;;;;;;21.63;73.61;101274.33;1728943;83;20959;-82
2021/08/16 02:33:35;;;;;;;12.03;7.20;;;;;;;21.59;73.59;101266.38;1728758;83;21115;-82
2021/08/16 02:36:02;;;;;;;9.65;6.78;;;;;;;21.55;73.64;101273.78;1728639;83;20986;-82
2021/08/16 02:38:29;;;;;;;9.38;7.20;;;;;;;21.55;73.65;101270.31;1728635;83;20994;-81
2021/08/16 02:40:55;;;;;;;9.98;7.03;;;;;;;21.53;73.66;101274.44;1728611;83;20900;-82
2021/08/16 02:43:22;;;;;;;11.22;7.85;;;;;;;21.54;73.68;101276.08;1728612;83;21105;-81
2021/08/16 02:45:48;;;;;;;9.43;7.45;;;;;;;21.53;73.66;101278.41;1728538;83;21125;-81
2021/08/16 02:48:15;;;;;;;15.20;8.08;;;;;;;21.53;73.66;101285.01;1728791;83;20899;-80
2021/08/16 02:50:42;;;;;;;13.25;8.28;;;;;;;21.50;73.62;101285.33;1728693;83;21018;-80
2021/08/16 02:53:08;;;;;;;8.13;6.87;;;;;;;21.48;73.72;101289.08;1728473;83;21014;-82
2021/08/16 02:55:35;;;;;;;10.93;6.90;;;;;;;21.45;73.88;101291.55;1728752;83;21460;-81
2021/08/16 02:58:01;;;;;;;10.85;7.22;;;;;;;21.42;74.05;101293.18;1728653;82;21117;-82
2021/08/16 03:00:30;;;;;;;10.38;6.85;;;;;;;21.41;74.17;101290.71;1728473;83;21125;-82
2021/08/16 03:02:58;;;;;;;11.95;7.75;;;;;;;21.40;74.42;101293.01;1728590;83;21478;-81
2021/08/16 03:05:25;;;;;;;10.20;7.45;;;;;;;21.39;74.67;101295.30;1728590;83;20907;-81
2021/08/16 03:07:54;;;;;;;8.60;7.60;;;;;;;21.36;74.80;101295.13;1728647;83;20958;-80
2021/08/16 03:10:20;;;;;;;13.10;7.47;;;;;;;21.36;74.98;101300.89;1728507;83;21799;-81
2021/08/16 03:12:48;;;;;;;9.30;6.60;;;;;;;21.33;75.08;101299.40;1728462;83;21039;-80
2021/08/16 03:15:15;;;;;;;11.10;7.65;;;;;;;21.31;75.22;101300.05;1728540;83;20911;-80
2021/08/16 03:17:43;;;;;;;16.48;8.60;;;;;;;21.29;75.56;101303.33;1728701;83;20911;-80
2021/08/16 03:20:12;;;;;;;17.12;9.25;;;;;;;21.27;75.64;101304.47;1728514;83;21536;-79
2021/08/16 03:22:43;;;;;;;12.00;9.00;;;;;;;21.22;75.73;101299.64;1728710;83;21158;-80
2021/08/16 03:25:09;;;;;;;17.92;9.53;;;;;;;21.18;75.53;101301.44;1728182;82;20931;-79
2021/08/16 03:27:35;;;;;;;14.20;8.70;;;;;;;21.11;75.48;101305.19;1728571;83;21439;-79
2021/08/16 03:30:07;;;;;;;14.83;8.30;;;;;;;21.07;75.78;101311.70;1728604;83;20959;-81
2021/08/16 03:32:34;;;;;;;22.13;7.85;;;;;;;21.01;75.79;101309.20;1728943;83;21485;-80
2021/08/16 03:35:04;;;;;;;15.15;8.60;;;;;;;20.94;75.82;101301.55;1728784;83;21134;-79
2021/08/16 03:37:34;;;;;;;;;;;;;;;20.88;76.09;101300.84;1731271;83;21065;-79
2021/08/16 03:40:04;;;;;;;16.30;9.18;;;;;;;20.83;76.41;101302.28;1728732;83;20096;-81
2021/08/16 03:42:30;;;;;;;15.68;8.40;;;;;;;20.78;76.66;101305.84;1728811;83;20994;-81
2021/08/16 03:44:57;;;;;;;14.40;8.53;;;;;;;20.72;76.93;101306.45;1728872;83;20888;-81
2021/08/16 03:47:24;;;;;;;14.75;8.28;;;;;;;20.69;77.18;101304.13;1728553;83;22041;-81
2021/08/16 03:49:51;;;;;;;13.80;8.25;;;;;;;20.67;77.49;101297.70;1728510;83;20946;-82
2021/08/16 03:52:18;;;;;;;20.50;10.38;;;;;;;20.68;77.70;101299.84;1728898;83;20907;-82
2021/08/16 03:54:45;;;;;;;18.30;11.00;;;;;;;20.67;77.72;101299.02;1728686;83;21525;-82
2021/08/16 03:57:13;;;;;;;21.42;11.45;;;;;;;20.67;77.83;101295.55;1728788;83;20931;-82
2021/08/16 03:59:39;;;;;;;22.30;10.58;;;;;;;20.65;77.91;101302.76;1725703;83;21155;-82
2021/08/16 04:02:06;;;;;;;19.17;10.38;;;;;;;20.63;78.12;101298.97;1724345;83;20864;-80
2021/08/16 04:04:33;;;;;;;18.15;10.53;;;;;;;20.64;78.30;101297.16;1724290;83;21522;-81
2021/08/16 04:07:01;;;;;;;16.20;9.48;;;;;;;20.63;78.47;101302.92;1724179;83;21540;-81
2021/08/16 04:09:27;;;;;;;17.10;8.83;;;;;;;20.64;78.73;101298.48;1724280;83;20924;-81
2021/08/16 04:11:54;;;;;;;16.48;9.10;;;;;;;20.67;78.92;101298.18;1724413;83;21132;-81
2021/08/16 04:14:24;;;;;;;15.88;9.45;;;;;;;20.69;78.99;101298.84;1724150;83;21498;-82
2021/08/16 04:16:50;;;;;;;14.93;9.40;;;;;;;20.71;79.02;101304.30;1724078;83;21010;-81
2021/08/16 04:19:18;;;;;;;15.40;8.75;;;;;;;20.75;79.05;101304.34;1724401;83;20979;-80
2021/08/16 04:21:46;;;;;;;18.07;9.35;;;;;;;20.80;79.13;101305.23;1724289;83;20904;-81
2021/08/16 04:24:13;;;;;;;18.73;9.45;;;;;;;20.84;79.21;101303.92;1724399;83;22010;-81
2021/08/16 04:26:42;;;;;;;15.80;9.65;;;;;;;20.88;79.21;101307.44;1724349;83;20959;-81
2021/08/16 04:29:09;;;;;;;18.05;9.70;;;;;;;20.92;79.24;101307.48;1724432;83;20978;-81
2021/08/16 04:31:37;;;;;;;22.77;10.25;;;;;;;20.96;79.21;101312.77;1724400;83;21439;-84
2021/08/16 04:34:04;;;;;;;15.05;9.48;;;;;;;21.00;79.23;101314.13;1724259;83;20957;-81
2021/08/16 04:36:31;;;;;;;18.48;10.53;;;;;;;21.06;79.15;101321.43;1724332;83;22019;-82
2021/08/16 04:38:58;;;;;;;16.50;9.95;;;;;;;21.11;79.15;101315.73;1724348;83;21478;-80
2021/08/16 04:41:25;;;;;;;21.37;10.05;;;;;;;21.15;79.13;101322.38;1724332;83;20979;-80
2021/08/16 04:43:54;;;;;;;18.92;10.65;;;;;;;21.19;79.00;101318.94;1724291;83;20928;-80
2021/08/16 04:46:20;;;;;;;18.67;9.53;;;;;;;21.23;78.80;101322.91;1724288;83;21062;-80
2021/08/16 04:48:48;;;;;;;17.10;8.98;;;;;;;21.27;78.60;101325.09;1724181;83;21155;-82
2021/08/16 04:51:15;;;;;;;18.10;9.18;;;;;;;21.33;78.64;101323.16;1724383;83;21484;-82
2021/08/16 04:53:43;;;;;;;12.58;8.73;;;;;;;21.38;78.46;101329.31;1724299;83;20923;-81
2021/08/16 04:56:10;;;;;;;15.88;9.30;;;;;;;21.46;78.20;101329.35;1724127;83;20995;-81
2021/08/16 04:58:36;;;;;;;15.68;9.93;;;;;;;21.52;77.98;101324.77;1721117;83;20888;-81
2021/08/16 05:01:03;;;;;;;15.68;8.90;;;;;;;21.57;77.87;101335.19;1691266;84;22002;-81
2021/08/16 05:03:29;;;;;;;18.52;9.18;;;;;;;21.63;77.72;101340.36;1691057;84;20954;-81
2021/08/16 05:06:04;;;;;;;25.60;10.32;;;;;;;21.68;77.54;101330.14;1691437;84;20923;-82
2021/08/16 05:08:24;;;;;;;16.32;10.18;;;;;;;21.75;77.59;101333.83;1690128;84;21059;-82
2021/08/16 05:10:53;;;;;;;17.55;10.08;;;;;;;21.81;77.37;101335.00;1691201;84;20958;-81
2021/08/16 05:13:20;;;;;;;20.70;9.73;;;;;;;21.87;77.05;101332.56;1691248;84;22031;-80
2021/08/16 05:15:46;;;;;;;15.43;9.40;;;;;;;21.94;76.91;101336.75;1691035;84;20888;-80
2021/08/16 05:18:13;;;;;;;17.00;9.88;;;;;;;22.00;76.81;101340.08;1691266;84;20963;-80
2021/08/16 05:20:40;;;;;;;17.95;9.50;;;;;;;22.06;76.73;101336.31;1691353;84;20951;-81
2021/08/16 05:23:08;;;;;;;13.10;9.13;;;;;;;22.12;76.53;101345.41;1691217;84;20986;-80
2021/08/16 05:25:34;;;;;;;20.05;10.03;;;;;;;22.20;76.37;101345.95;1673235;84;21142;-81
2021/08/16 05:28:01;;;;;;;26.37;10.85;;;;;;;22.26;76.13;101346.14;1691289;84;21022;-80
2021/08/16 05:30:28;;;;;;;24.32;15.20;;;;;;;22.35;75.74;101350.95;1691290;84;21108;-81
2021/08/16 05:32:54;;;;;;;22.65;17.80;;;;;;;22.41;75.41;101344.52;1691259;84;20947;-81
2021/08/16 05:35:21;;;;;;;29.25;26.17;;;;;;;22.48;75.01;101340.74;1691233;84;21050;-81
2021/08/16 05:37:49;;;;;;;37.53;30.43;;;;;;;22.53;74.61;101340.58;1691161;84;20935;-81
2021/08/16 05:40:17;;;;;;;35.85;26.93;;;;;;;22.60;74.22;101340.77;1691188;84;21469;-81
2021/08/16 05:42:43;;;;;;;35.92;32.15;;;;;;;22.67;73.80;101331.22;1691246;84;20990;-81
2021/08/16 05:45:11;;;;;;;46.02;34.45;;;;;;;22.75;73.43;101322.48;1691293;84;21794;-80
2021/08/16 05:47:38;;;;;;;38.73;34.58;;;;;;;22.83;73.08;101329.09;1691509;84;21422;-79
2021/08/16 05:50:06;;;;;;;32.63;29.10;;;;;;;22.90;72.55;101326.13;1691054;84;21186;-80
2021/08/16 05:52:34;;;;;;;28.25;24.72;;;;;;;22.97;71.83;101327.95;1690749;84;20915;-81
2021/08/16 05:55:08;;;;;;;28.87;24.37;;;;;;;23.06;70.88;101326.13;1691303;84;21022;-81
2021/08/16 05:57:35;;;;;;;33.92;23.87;;;;;;;23.13;70.23;101328.45;1691334;84;21513;-83
2021/08/16 06:00:07;;;;;;;18.55;13.18;;;;;;;23.20;69.86;101326.77;1708783;83;21569;-79
2021/08/16 06:02:37;;;;;;;15.95;12.53;;;;;;;23.27;68.59;101321.63;1705566;83;20984;-81
2021/08/16 06:05:09;;;;;;;16.82;12.00;;;;;;;23.36;67.71;101324.09;1724056;83;20963;-82
2021/08/16 06:07:41;;;;;;;14.87;10.68;;;;;;;23.44;67.47;101320.16;1724062;83;20990;-81
2021/08/16 06:10:09;;;;;;;15.32;10.45;;;;;;;23.53;66.54;101320.95;1724440;83;21612;-83
2021/08/16 06:12:37;;;;;;;18.50;10.10;;;;;;;23.63;66.03;101321.60;1724027;83;21642;-82
2021/08/16 06:15:06;;;;;;;11.95;9.15;;;;;;;23.74;65.03;101325.72;1723898;83;20960;-80
2021/08/16 06:17:37;;;;;;;15.55;9.15;;;;;;;23.84;63.37;101324.51;1724048;83;20983;-82
2021/08/16 06:20:05;;;;;;;16.07;8.85;;;;;;;23.93;62.48;101327.45;1724449;83;21501;-80
2021/08/16 06:22:33;;;;;;;15.68;9.25;;;;;;;24.05;61.76;101330.08;1724903;83;21111;-81
2021/08/16 06:25:01;;;;;;;16.80;9.05;;;;;;;24.16;61.38;101329.71;1724373;83;21059;-81
2021/08/16 06:27:29;;;;;;;11.75;8.70;;;;;;;24.28;60.89;101333.32;1724280;83;20991;-82
2021/08/16 06:29:56;;;;;;;16.67;8.73;;;;;;;24.40;60.02;101337.23;1724396;83;21458;-82
2021/08/16 06:32:23;;;;;;;16.67;8.20;;;;;;;24.50;59.42;101332.03;1724191;83;20942;-80
2021/08/16 06:34:50;;;;;;;14.10;8.68;;;;;;;24.58;58.60;101329.81;1724274;83;21447;-79
2021/08/16 06:37:17;;;;;;;19.35;8.25;;;;;;;24.70;57.72;101327.06;1724256;83;20982;-76
2021/08/16 06:39:44;;;;;;;9.30;7.55;;;;;;;24.82;57.17;101328.86;1724192;83;21067;-79
2021/08/16 06:42:12;;;;;;;10.38;7.03;;;;;;;24.98;53.32;101325.58;1724129;83;20967;-82
2021/08/16 06:44:39;;;;;;;9.63;6.37;;;;;;;25.19;52.27;101322.23;1724367;83;21026;-77
2021/08/16 06:47:05;;;;;;;13.48;6.95;;;;;;;25.34;50.36;101324.40;1682055;83;21538;-74
2021/08/16 06:49:33;;;;;;;11.55;6.75;;;;;;;25.52;48.85;101325.43;1724011;83;21500;-76
2021/08/16 06:52:00;;;;;;;6.92;5.40;;;;;;;25.69;48.36;101332.20;1724245;83;21165;-77
2021/08/16 06:54:26;;;;;;;13.83;6.17;;;;;;;25.82;44.13;101328.40;1724231;83;20987;-79
2021/08/16 06:56:53;;;;;;;10.68;6.37;;;;;;;25.93;45.65;101325.79;1724255;83;20971;-80
2021/08/16 06:59:20;;;;;;;9.70;5.72;;;;;;;26.02;46.76;101330.83;1724528;82;20947;-81
2021/08/16 07:01:49;;;;;;;9.05;6.03;;;;;;;26.11;46.25;101325.71;1728728;83;20990;-80
2021/08/16 07:04:16;;;;;;;9.65;6.90;;;;;;;26.17;47.01;101325.00;1728532;83;21131;-77
2021/08/16 07:06:46;;;;;;;14.78;7.17;;;;;;;26.20;47.42;101325.13;1728644;83;37389;-81
2021/08/16 07:09:13;;;;;;;11.55;6.08;;;;;;;26.22;47.78;101330.60;1728572;83;21018;-80
2021/08/16 07:11:39;;;;;;;10.35;6.03;;;;;;;26.28;46.87;101333.02;1728563;83;20931;-79
2021/08/16 07:14:06;;;;;;;13.48;6.60;;;;;;;26.32;46.64;101330.80;1728241;83;21018;-80
2021/08/16 07:16:33;;;;;;;7.72;6.03;;;;;;;26.35;46.93;101335.75;1728338;83;21162;-79
2021/08/16 07:19:01;;;;;;;13.88;6.58;;;;;;;26.41;46.86;101337.66;1728288;81;21061;-81
2021/08/16 07:21:29;;;;;;;16.95;6.58;;;;;;;26.49;46.87;101338.36;1728604;83;21018;-80
2021/08/16 07:23:57;;;;;;;10.50;5.95;;;;;;;26.58;47.37;101335.09;1728552;83;20924;-79
2021/08/16 07:26:25;;;;;;;10.68;5.50;;;;;;;26.63;47.24;101340.66;1727899;83;21499;-79
2021/08/16 07:28:55;;;;;;;8.20;5.53;;;;;;;26.68;45.65;101340.41;1719465;82;21693;-74
2021/08/16 07:31:26;;;;;;;7.03;5.17;;;;;;;26.72;44.79;101339.02;1725695;83;21576;-77
2021/08/16 07:33:55;;;;;;;8.40;5.30;;;;;;;26.83;42.00;101335.86;1725667;83;20987;-79
2021/08/16 07:36:22;;;;;;;6.60;4.45;;;;;;;26.95;40.70;101340.19;1725490;83;21030;-81
2021/08/16 07:38:49;;;;;;;11.30;5.17;;;;;;;27.04;40.09;101331.55;1725610;83;21608;-79
2021/08/16 07:41:18;;;;;;;7.35;4.83;;;;;;;27.12;40.30;101334.09;1724130;83;21119;-80
2021/08/16 07:43:46;;;;;;;9.03;4.55;;;;;;;27.21;39.18;101332.93;1690582;84;20913;-81
2021/08/16 07:46:13;;;;;;;5.28;4.05;;;;;;;27.36;37.84;101337.64;1720517;83;21086;-83
2021/08/16 07:48:41;;;;;;;11.30;4.00;;;;;;;27.45;36.73;101332.51;1700515;84;21471;-81
2021/08/16 07:51:09;;;;;;;5.05;3.40;;;;;;;27.56;35.24;101322.65;1720397;82;20986;-76
2021/08/16 07:53:37;;;;;;;9.00;4.45;;;;;;;27.65;35.36;101321.97;1720393;83;21545;-77
2021/08/16 07:56:06;;;;;;;10.18;3.95;;;;;;;27.73;34.66;101331.95;1700499;84;20992;-77
2021/08/16 07:58:36;;;;;;;5.10;3.85;;;;;;;27.83;34.68;101321.76;1720397;83;20931;-81
2021/08/16 08:01:04;;;;;;;4.60;3.92;;;;;;;27.93;34.63;101324.06;1733146;82;20955;-79
2021/08/16 08:03:33;;;;;;;5.53;3.90;;;;;;;28.01;35.01;101315.91;1733202;82;20895;-82
2021/08/16 08:06:01;;;;;;;5.08;3.92;;;;;;;28.07;35.00;101315.64;1733217;82;21143;-79
2021/08/16 08:08:29;;;;;;;8.13;3.67;;;;;;;28.14;34.64;101311.98;1733482;82;20986;-81
2021/08/16 08:10:57;;;;;;;6.28;4.33;;;;;;;28.22;34.38;101315.80;1724698;82;20988;-79
2021/08/16 08:13:23;;;;;;;6.75;4.10;;;;;;;28.30;34.05;101312.94;1723476;83;20999;-82
2021/08/16 08:15:50;;;;;;;6.08;4.17;;;;;;;28.39;34.37;101314.92;1725944;83;20943;-81
2021/08/16 08:18:17;;;;;;;8.33;4.50;;;;;;;28.50;33.96;101306.81;1725879;83;21130;-80
2021/08/16 08:20:44;;;;;;;4.47;3.75;;;;;;;28.60;33.68;101312.59;1725183;83;21074;-83
2021/08/16 08:23:11;;;;;;;8.93;4.10;;;;;;;28.65;33.14;101303.47;1701514;83;21065;-80
2021/08/16 08:25:40;;;;;;;8.65;4.00;;;;;;;28.68;33.82;101312.45;1720404;83;21034;-75
2021/08/16 08:28:11;;;;;;;5.22;4.33;;;;;;;28.70;32.97;101307.20;1709609;82;20957;-73
2021/08/16 08:30:39;;;;;;;8.63;3.83;;;;;;;28.75;32.92;101313.28;1733183;82;21138;-80
2021/08/16 08:33:09;;;;;;;7.30;4.15;;;;;;;28.79;33.63;101309.98;1733330;82;20935;-83
2021/08/16 08:35:37;;;;;;;7.47;4.15;;;;;;;28.89;33.80;101311.73;1733298;82;21003;-79
2021/08/16 08:38:07;;;;;;;16.82;4.33;;;;;;;28.98;32.66;101308.84;1733860;82;20954;-78
2021/08/16 08:40:34;;;;;;;7.67;3.92;;;;;;;29.08;33.59;101314.09;1700977;84;21069;-76
2021/08/16 08:43:12;;;;;;;11.48;4.10;;;;;;;29.14;33.91;101313.27;1721986;83;21803;-77
2021/08/16 08:45:41;;;;;;;9.93;4.70;;;;;;;29.21;33.73;101307.92;1720637;83;21434;-76
2021/08/16 08:48:09;;;;;;;7.37;3.92;;;;;;;29.23;33.85;101312.02;1721315;83;21498;-77
2021/08/16 08:50:40;;;;;;;6.33;3.80;;;;;;;29.29;32.45;101306.41;1720913;83;20959;-79
2021/08/16 08:53:09;;;;;;;5.72;4.08;;;;;;;29.33;32.15;101300.94;1725103;82;21009;-76
2021/08/16 08:55:36;;;;;;;7.33;4.12;;;;;;;29.38;32.65;101311.84;1712565;82;21311;-77
2021/08/16 08:58:05;;;;;;;7.37;4.33;;;;;;;29.44;33.18;101307.00;1726222;83;21494;-77
2021/08/16 09:00:33;;;;;;;5.67;4.12;;;;;;;29.51;33.37;101302.46;1718383;82;21010;-79
2021/08/16 09:03:04;;;;;;;6.90;3.20;;;;;;;29.62;33.50;101310.34;1703022;84;21011;-76
2021/08/16 09:05:32;;;;;;;11.83;4.03;;;;;;;29.73;32.77;101303.84;1702224;84;21025;-76
2021/08/16 09:08:00;;;;;;;7.92;4.03;;;;;;;29.81;32.27;101302.77;1702169;84;21181;-75
2021/08/16 09:10:30;;;;;;;8.45;3.98;;;;;;;29.90;31.30;101308.20;1702286;84;21595;-76
2021/08/16 09:13:00;;;;;;;6.20;3.22;;;;;;;29.88;31.23;101304.42;1702352;83;21049;-75
2021/08/16 09:15:29;;;;;;;7.75;3.85;;;;;;;29.93;29.49;101304.59;1702318;84;20943;-78
2021/08/16 09:18:02;;;;;;;10.58;3.92;;;;;;;29.96;30.49;101300.70;1703263;84;20923;-78
2021/08/16 09:20:34;;;;;;;4.60;3.50;;;;;;;30.04;30.33;101304.97;1702850;84;21090;-76
2021/08/16 09:23:13;;;;;;;6.47;3.95;;;;;;;30.13;28.34;101299.67;1703141;84;20883;-77
2021/08/16 09:25:39;;;;;;;6.78;3.25;;;;;;;30.11;28.30;101300.41;1702951;84;20947;-74
2021/08/16 09:28:09;;;;;;;6.72;3.60;;;;;;;30.05;28.23;101294.58;1703201;84;20906;-78
2021/08/16 09:30:40;;;;;;;4.58;3.95;;;;;;;30.05;28.83;101290.05;1702569;84;21005;-73
2021/08/16 09:33:19;;;;;;;4.90;3.67;;;;;;;30.15;27.75;101292.27;1702278;84;20993;-83
2021/08/16 09:35:58;;;;;;;5.50;3.67;;;;;;;30.23;27.04;101296.02;1691916;84;21489;-76
2021/08/16 09:38:37;;;;;;;5.92;3.70;;;;;;;30.25;27.41;101291.28;1677975;85;20931;-78
2021/08/16 09:41:22;;;;;;;8.28;3.65;;;;;;;30.32;26.56;101288.03;1678140;85;21061;-77
2021/08/16 09:43:52;;;;;;;5.53;3.45;;;;;;;30.36;27.56;101290.08;1677919;85;20951;-76
2021/08/16 09:46:20;;;;;;;10.55;3.10;;;;;;;30.50;26.63;101277.97;1678278;84;21748;-77
2021/08/16 09:49:02;;;;;;;6.65;3.83;;;;;;;30.59;27.43;101286.04;1677695;84;20924;-74
2021/08/16 09:51:32;;;;;;;5.10;3.50;;;;;;;30.68;26.04;101278.03;1677994;85;20939;-80
2021/08/16 09:54:01;;;;;;;5.00;3.25;;;;;;;30.58;26.43;101281.70;1678211;84;20950;-79
2021/08/16 09:56:30;;;;;;;7.50;3.20;;;;;;;30.65;27.03;101273.11;1656856;85;20967;-74
2021/08/16 09:58:58;;;;;;;9.05;3.70;;;;;;;31.51;27.00;101266.47;1678459;85;21123;-82
2021/08/16 10:01:25;;;;;;;6.75;3.27;;;;;;;32.95;25.19;101271.98;1691763;83;21082;-74
2021/08/16 10:03:53;;;;;;;5.00;3.98;;;;;;;34.24;23.74;101261.81;1701831;84;20990;-75
2021/08/16 10:06:23;;;;;;;6.08;3.92;;;;;;;34.94;22.45;101252.18;1702138;84;21052;-75
2021/08/16 10:08:53;;;;;;;4.90;3.47;;;;;;;35.64;21.25;101258.32;1702115;84;20962;-75
2021/08/16 10:11:22;;;;;;;;;;;;;;;36.38;21.69;101245.84;1705017;84;21043;-79
2021/08/16 10:13:56;;;;;;;6.65;3.10;;;;;;;37.60;20.37;101244.76;1702513;84;20148;-78
2021/08/16 10:16:27;;;;;;;8.78;3.58;;;;;;;38.65;19.57;101237.33;1702955;84;21070;-74
2021/08/16 10:19:05;;;;;;;4.97;3.83;;;;;;;39.11;17.82;101244.05;1703322;84;20966;-75
2021/08/16 10:21:37;;;;;;;6.37;3.67;;;;;;;38.64;18.37;101236.27;1703288;84;21074;-78
2021/08/16 10:24:25;;;;;;;3.85;3.50;;;;;;;38.66;19.01;101232.73;1674342;85;21063;-78
2021/08/16 10:27:11;;;;;;;5.30;3.40;;;;;;;38.99;18.54;101236.77;1674110;85;20993;-74
2021/08/16 10:29:41;;;;;;;8.30;3.62;;;;;;;39.16;18.47;101222.30;1675554;85;20910;-75
2021/08/16 10:32:17;;;;;;;9.73;3.80;;;;;;;39.18;18.23;101225.57;1701862;84;20947;-79
2021/08/16 10:34:44;;;;;;;4.55;3.00;;;;;;;38.81;18.35;101225.94;1702743;84;21354;-77
2021/08/16 10:37:15;;;;;;;8.58;3.20;;;;;;;38.13;18.50;101226.73;1702858;84;20951;-77
2021/08/16 10:39:47;;;;;;;7.60;3.70;;;;;;;37.50;19.39;101224.41;1703924;84;20946;-76
2021/08/16 10:42:18;;;;;;;6.67;3.58;;;;;;;36.96;19.63;101226.53;1703594;84;20978;-73
2021/08/16 10:44:48;;;;;;;6.22;3.77;;;;;;;36.51;20.40;101212.14;1704706;84;21003;-76
2021/08/16 10:47:31;;;;;;;11.03;4.00;;;;;;;36.20;20.85;101203.52;1703571;84;20892;-77
2021/08/16 10:50:13;;;;;;;5.78;3.58;;;;;;;35.93;20.97;101209.73;1703263;84;21153;-76
2021/08/16 10:52:41;;;;;;;5.53;3.80;;;;;;;35.54;20.86;101204.16;1703285;84;20939;-75
2021/08/16 10:55:18;;;;;;;4.25;3.62;;;;;;;34.92;21.60;101209.81;1703006;84;21529;-75
2021/08/16 10:57:44;;;;;;;8.80;3.50;;;;;;;34.71;22.12;101210.59;1702480;84;20986;-76
2021/08/16 11:00:13;;;;;;;6.60;3.83;;;;;;;34.71;22.42;101211.94;1702667;84;21521;-82
2021/08/16 11:02:41;;;;;;;4.55;3.10;;;;;;;34.82;22.26;101211.02;1721173;83;21502;-80
2021/08/16 11:05:11;;;;;;;4.85;3.55;;;;;;;34.82;21.90;101212.89;1734551;82;20899;-78
2021/08/16 11:07:39;;;;;;;8.13;3.47;;;;;;;34.60;22.25;101213.33;1734174;82;20943;-73
2021/08/16 11:10:09;;;;;;;5.95;3.75;;;;;;;34.45;22.99;101212.58;1711573;82;21012;-76
2021/08/16 11:12:43;;;;;;;4.55;3.30;;;;;;;34.54;22.66;101217.84;1734628;82;21053;-81
2021/08/16 11:15:14;;;;;;;4.60;3.15;;;;;;;34.51;22.80;101215.63;1734346;82;20927;-77
2021/08/16 11:17:41;;;;;;;5.37;3.62;;;;;;;34.36;23.02;101210.83;1735543;82;20848;-74
2021/08/16 11:20:19;;;;;;;8.10;3.60;;;;;;;34.22;23.12;101214.06;1734516;82;21485;-74
2021/08/16 11:22:53;;;;;;;9.15;3.90;;;;;;;34.10;23.29;101212.77;1700806;84;21004;-76
2021/08/16 11:25:21;;;;;;;4.17;3.33;;;;;;;34.02;23.27;101218.01;1721445;83;20947;-74
2021/08/16 11:27:48;;;;;;;5.37;3.08;;;;;;;33.93;23.08;101213.25;1721055;83;21202;-73